Time;durP1;ratioP1;P1;durP2;ratioP2;P2;SDS_P1;SDS_P2;PMS_P1;PMS_P2;Temp;Humidity;BMP_temperature;BMP_pressure;BME280_temperature;BME280_humidity;BME280_pressure;Samples;Min_cycle;Max_cycle;Signal;HPM_P1;HPM_P2
2021/10/10 00:01:26;;;;;;;;;;;;;;;21.10;71.45;102681.47;7283197;19;152021;-52
2021/10/10 00:03:52;;;;;;;;;;;;;;;21.11;71.73;102685.97;7283923;19;153420;-52
2021/10/10 00:06:19;;;;;;;;;;;;;;;21.10;71.77;102681.47;7285055;19;152802;-51
2021/10/10 00:08:46;;;;;;;;;;;;;;;21.08;71.84;102687.34;7285799;19;151976;-51
2021/10/10 00:11:13;;;;;;;;;;;;;;;21.08;71.66;102689.31;7286693;19;152618;-52
2021/10/10 00:13:39;;;;;;;;;;;;;;;21.08;72.11;102692.13;7285709;19;154258;-51
2021/10/10 00:16:06;;;;;;;;;;;;;;;21.07;71.74;102684.81;7283895;19;151944;-52
2021/10/10 00:18:33;;;;;;;;;;;;;;;21.06;71.89;102692.41;7293212;19;152863;-51
2021/10/10 00:21:00;;;;;;;;;;;;;;;21.05;71.76;102685.09;7285695;19;151694;-51
2021/10/10 00:23:27;;;;;;;;;;;;;;;21.05;72.19;102689.84;7286995;19;153025;-52
2021/10/10 00:25:53;;;;;;;;;;;;;;;21.04;72.34;102685.34;7284857;19;153407;-51
2021/10/10 00:28:20;;;;;;;;;;;;;;;21.04;72.18;102700.25;7285723;19;152360;-52
2021/10/10 00:30:47;;;;;;;;;;;;;;;21.04;71.94;102700.25;7285109;19;153160;-52
2021/10/10 00:33:13;;;;;;;;;;;;;;;21.04;72.35;102694.63;7284180;19;153447;-51
2021/10/10 00:35:40;;;;;;;;;;;;;;;21.03;72.43;102687.31;7285883;19;152029;-51
2021/10/10 00:38:08;;;;;;;;;;;;;;;21.06;72.57;102691.56;7282448;19;153489;-52
2021/10/10 00:40:34;;;;;;;;;;;;;;;21.04;72.63;102702.22;7292560;19;153335;-51
2021/10/10 00:43:02;;;;;;;;;;;;;;;21.06;72.42;102694.38;7284891;19;153149;-51
2021/10/10 00:45:29;;;;;;;;;;;;;;;21.04;72.83;102688.16;7282911;19;154168;-51
2021/10/10 00:47:55;;;;;;;;;;;;;;;21.04;72.78;102680.56;7284413;19;151827;-51
2021/10/10 00:50:22;;;;;;;;;;;;;;;21.03;72.69;102680.88;7285254;19;152912;-51
2021/10/10 00:52:50;;;;;;;;;;;;;;;21.03;73.11;102676.06;7282154;19;152533;-52
2021/10/10 00:55:20;;;;;;;;;;;;;;;21.03;73.00;102676.06;7283059;19;151926;-52
2021/10/10 00:57:48;;;;;;;;;;;;;;;21.02;72.82;102680.00;7283909;19;153222;-52
2021/10/10 01:00:14;;;;;;;;;;;;;;;21.03;72.92;102675.25;7283726;19;154228;-52
2021/10/10 01:02:43;;;;;;;;;;;;;;;21.03;73.03;102681.69;7289757;19;152253;-52
2021/10/10 01:05:11;;;;;;;;;;;;;;;21.01;73.63;102674.66;7281982;19;154148;-51
2021/10/10 01:07:38;;;;;;;;;;;;;;;21.00;73.64;102687.84;7285103;19;152084;-51
2021/10/10 01:10:06;;;;;;;;;;;;;;;21.00;73.63;102684.19;7280875;19;151753;-52
2021/10/10 01:12:33;;;;;;;;;;;;;;;20.99;74.14;102694.59;7283893;19;153910;-51
2021/10/10 01:15:01;;;;;;;;;;;;;;;20.99;74.19;102688.97;7283919;19;152204;-51
2021/10/10 01:17:28;;;;;;;;;;;;;;;20.98;74.28;102692.91;7281628;19;153160;-51
2021/10/10 01:19:56;;;;;;;;;;;;;;;20.98;74.32;102686.44;7282733;19;153747;-51
2021/10/10 01:22:23;;;;;;;;;;;;;;;20.99;74.42;102677.72;7283956;19;151824;-51
2021/10/10 01:24:49;;;;;;;;;;;;;;;21.00;74.88;102678.56;7290444;19;152097;-52
2021/10/10 01:27:16;;;;;;;;;;;;;;;20.99;74.61;102688.13;7287013;19;152169;-52
2021/10/10 01:29:43;;;;;;;;;;;;;;;20.99;74.62;102685.31;7290118;19;153164;-50
2021/10/10 01:32:10;;;;;;;;;;;;;;;20.99;74.54;102685.31;7289339;19;152323;-51
2021/10/10 01:34:36;;;;;;;;;;;;;;;20.98;74.62;102678.88;7288820;19;152020;-52
2021/10/10 01:37:03;;;;;;;;;;;;;;;20.99;74.70;102685.31;7289834;19;152268;-52
2021/10/10 01:39:30;;;;;;;;;;;;;;;20.98;74.56;102684.47;7290711;19;153246;-51
2021/10/10 01:41:56;;;;;;;;;;;;;;;20.97;74.68;102679.97;7290285;19;151600;-51
2021/10/10 01:44:23;;;;;;;;;;;;;;;20.97;74.77;102676.31;7290312;19;152998;-51
2021/10/10 01:46:50;;;;;;;;;;;;;;;20.97;74.74;102668.72;7296340;19;151578;-52
2021/10/10 01:49:16;;;;;;;;;;;;;;;20.96;75.23;102669.84;7287528;19;153253;-52
2021/10/10 01:51:43;;;;;;;;;;;;;;;20.97;75.10;102667.88;7287390;19;153974;-52
2021/10/10 01:54:10;;;;;;;;;;;;;;;20.95;74.99;102665.34;7288712;19;154783;-51
2021/10/10 01:56:37;;;;;;;;;;;;;;;20.97;75.17;102667.88;7289085;19;152149;-52
2021/10/10 01:59:03;;;;;;;;;;;;;;;20.95;74.97;102667.28;7289773;19;152236;-52
2021/10/10 02:01:30;;;;;;;;;;;;;;;20.95;74.89;102670.09;7287393;19;152266;-51
2021/10/10 02:03:57;;;;;;;;;;;;;;;20.95;74.97;102662.53;7289428;19;153321;-52
2021/10/10 02:06:24;;;;;;;;;;;;;;;20.96;74.92;102663.38;7293907;19;154137;-50
2021/10/10 02:08:50;;;;;;;;;;;;;;;20.95;74.99;102664.47;7287856;19;153400;-52
2021/10/10 02:11:17;;;;;;;;;;;;;;;20.94;75.01;102660.00;7286760;19;154380;-51
2021/10/10 02:13:44;;;;;;;;;;;;;;;20.94;75.26;102657.19;7287446;19;151825;-51
2021/10/10 02:16:11;;;;;;;;;;;;;;;20.92;75.43;102663.06;7287353;19;153374;-51
2021/10/10 02:18:38;;;;;;;;;;;;;;;20.91;75.07;102655.75;7284951;19;152554;-51
2021/10/10 02:21:04;;;;;;;;;;;;;;;20.91;75.35;102652.94;7285404;19;152134;-52
2021/10/10 02:23:34;;;;;;;;;;;;;;;20.91;75.03;102657.72;7288245;19;153036;-52
2021/10/10 02:26:01;;;;;;;;;;;;;;;20.91;75.24;102660.53;7286902;19;153276;-52
2021/10/10 02:28:27;;;;;;;;;;;;;;;20.91;75.35;102667.00;7295442;19;151689;-52
2021/10/10 02:30:54;;;;;;;;;;;;;;;20.90;75.05;102662.47;7287154;19;153966;-52
2021/10/10 02:33:21;;;;;;;;;;;;;;;20.97;75.64;102663.13;7288828;19;151758;-52
2021/10/10 02:35:48;;;;;;;;;;;;;;;21.01;75.55;102666.22;7284857;19;153280;-51
2021/10/10 02:38:15;;;;;;;;;;;;;;;21.03;75.44;102661.19;7284840;19;153095;-52
2021/10/10 02:40:42;;;;;;;;;;;;;;;20.96;75.32;102658.59;7286778;19;151852;-51
2021/10/10 02:43:08;;;;;;;;;;;;;;;20.95;75.46;102650.44;7288224;19;152881;-52
2021/10/10 02:45:36;;;;;;;;;;;;;;;20.97;75.40;102660.31;7288568;19;153726;-52
2021/10/10 02:48:04;;;;;;;;;;;;;;;20.94;75.06;102651.56;7288083;19;151823;-52
2021/10/10 02:50:31;;;;;;;;;;;;;;;20.94;75.53;102651.56;7293672;19;151778;-51
2021/10/10 02:52:58;;;;;;;;;;;;;;;20.93;75.40;102653.53;7288101;19;151855;-52
2021/10/10 02:55:25;;;;;;;;;;;;;;;20.90;75.25;102645.63;7287445;19;153175;-52
2021/10/10 02:57:52;;;;;;;;;;;;;;;20.90;75.10;102648.44;7287937;19;153873;-51
2021/10/10 03:00:18;;;;;;;;;;;;;;;20.90;75.46;102644.78;7289073;19;151993;-52
2021/10/10 03:02:45;;;;;;;;;;;;;;;20.89;75.28;102648.72;7282210;19;153583;-51
2021/10/10 03:05:12;;;;;;;;;;;;;;;20.88;75.54;102644.22;7287741;19;153639;-52
2021/10/10 03:07:39;;;;;;;;;;;;;;;20.88;75.35;102647.03;7287096;19;152041;-51
2021/10/10 03:10:06;;;;;;;;;;;;;;;20.86;74.99;102641.66;7284612;19;152783;-51
2021/10/10 03:12:33;;;;;;;;;;;;;;;20.85;75.41;102642.78;7292410;19;154089;-51
2021/10/10 03:15:00;;;;;;;;;;;;;;;20.84;75.38;102647.56;7288989;19;153249;-51
2021/10/10 03:17:27;;;;;;;;;;;;;;;20.85;75.39;102643.63;7287157;19;153338;-52
2021/10/10 03:19:54;;;;;;;;;;;;;;;20.84;75.67;102650.38;7285436;19;152055;-51
2021/10/10 03:22:21;;;;;;;;;;;;;;;20.83;75.41;102640.25;7287648;19;152763;-51
2021/10/10 03:24:47;;;;;;;;;;;;;;;20.83;75.49;102640.25;7284327;19;154477;-51
2021/10/10 03:27:14;;;;;;;;;;;;;;;20.83;75.27;102640.25;7288758;19;151830;-52
2021/10/10 03:29:41;;;;;;;;;;;;;;;20.84;75.65;102649.53;7287620;19;152820;-51
2021/10/10 03:32:08;;;;;;;;;;;;;;;20.82;75.38;102646.97;7284561;19;153761;-51
2021/10/10 03:34:34;;;;;;;;;;;;;;;20.82;75.00;102644.16;7294219;19;151951;-51
2021/10/10 03:37:01;;;;;;;;;;;;;;;20.80;75.05;102643.56;7284705;19;154161;-51
2021/10/10 03:39:28;;;;;;;;;;;;;;;20.79;75.20;102636.28;7287644;19;151554;-51
2021/10/10 03:41:55;;;;;;;;;;;;;;;20.81;75.12;102650.03;7287298;19;152125;-51
2021/10/10 03:44:21;;;;;;;;;;;;;;;20.80;75.21;102645.56;7286758;19;155030;-51
2021/10/10 03:46:48;;;;;;;;;;;;;;;20.80;75.23;102645.56;7286084;19;152132;-51
2021/10/10 03:49:15;;;;;;;;;;;;;;;20.80;75.47;102643.56;7284164;19;152740;-51
2021/10/10 03:51:41;;;;;;;;;;;;;;;20.78;75.52;102642.16;7283592;19;153456;-51
2021/10/10 03:54:42;;;;;;;;;;;;;;;20.79;75.78;102646.69;7294165;19;151955;-52
2021/10/10 03:56:55;;;;;;;;;;;;;;;20.78;75.68;102644.97;7284746;19;153761;-51
2021/10/10 03:59:23;;;;;;;;;;;;;;;20.77;76.45;102644.13;7286596;19;152434;-52
2021/10/10 04:01:50;;;;;;;;;;;;;;;20.77;75.75;102637.66;7285159;19;152837;-52
2021/10/10 04:04:17;;;;;;;;;;;;;;;20.78;76.18;102643.03;7283928;19;153974;-51
2021/10/10 04:06:44;;;;;;;;;;;;;;;20.78;75.74;102637.41;7283407;19;151894;-50
2021/10/10 04:09:10;;;;;;;;;;;;;;;20.77;75.75;102641.31;7284074;19;153449;-51
2021/10/10 04:11:37;;;;;;;;;;;;;;;20.75;76.30;102628.66;7286120;19;154135;-52
2021/10/10 04:14:04;;;;;;;;;;;;;;;20.77;75.77;102632.88;7284004;19;151872;-51
2021/10/10 04:16:30;;;;;;;;;;;;;;;20.75;75.88;102635.13;7292514;19;152848;-51
2021/10/10 04:18:57;;;;;;;;;;;;;;;20.76;76.19;102633.16;7284948;19;151563;-51
2021/10/10 04:21:24;;;;;;;;;;;;;;;20.74;76.20;102626.97;7286840;19;153203;-51
2021/10/10 04:23:50;;;;;;;;;;;;;;;20.72;76.45;102621.59;7284491;19;153491;-51
2021/10/10 04:26:17;;;;;;;;;;;;;;;20.73;76.20;102628.94;7286460;19;151750;-51
2021/10/10 04:28:44;;;;;;;;;;;;;;;20.72;76.42;102627.22;7286364;19;152863;-52
2021/10/10 04:31:11;;;;;;;;;;;;;;;20.72;76.46;102629.19;7281543;19;153730;-52
2021/10/10 04:33:37;;;;;;;;;;;;;;;20.72;76.10;102624.41;7285856;19;151956;-51
2021/10/10 04:36:04;;;;;;;;;;;;;;;20.74;75.96;102627.81;7283578;19;153368;-51
2021/10/10 04:38:31;;;;;;;;;;;;;;;20.72;76.77;102627.22;7289429;19;153399;-52
2021/10/10 04:40:57;;;;;;;;;;;;;;;20.74;76.32;102627.81;7285526;19;152976;-52
2021/10/10 04:43:24;;;;;;;;;;;;;;;20.73;76.41;102617.69;7285106;19;154115;-51
2021/10/10 04:45:51;;;;;;;;;;;;;;;20.70;76.17;102615.44;7284267;19;151881;-52
2021/10/10 04:48:17;;;;;;;;;;;;;;;20.71;76.71;102616.28;7285553;19;153455;-52
2021/10/10 04:50:44;;;;;;;;;;;;;;;20.70;76.63;102620.19;7283068;19;153385;-51
2021/10/10 04:53:11;;;;;;;;;;;;;;;20.70;76.33;102621.06;7285320;19;151698;-51
2021/10/10 04:55:38;;;;;;;;;;;;;;;20.70;76.72;102625.81;7283633;19;151862;-51
2021/10/10 04:58:05;;;;;;;;;;;;;;;20.69;76.48;102622.16;7283161;19;153374;-52
2021/10/10 05:00:31;;;;;;;;;;;;;;;20.72;76.14;102630.03;7293443;19;151547;-51
2021/10/10 05:03:01;;;;;;;;;;;;;;;20.71;76.77;102624.72;7288414;19;154174;-52
2021/10/10 05:05:29;;;;;;;;;;;;;;;20.68;77.11;102625.22;7290650;19;151748;-52
2021/10/10 05:07:56;;;;;;;;;;;;;;;20.69;76.78;102624.97;7291862;19;152214;-51
2021/10/10 05:10:23;;;;;;;;;;;;;;;20.69;76.89;102627.78;7289738;19;154256;-51
2021/10/10 05:12:49;;;;;;;;;;;;;;;20.67;77.29;102629.16;7291291;19;151724;-52
2021/10/10 05:15:16;;;;;;;;;;;;;;;20.68;76.66;102628.88;7291154;19;152803;-51
2021/10/10 05:17:43;;;;;;;;;;;;;;;20.67;77.83;102630.00;7287382;19;153788;-51
2021/10/10 05:20:10;;;;;;;;;;;;;;;20.65;78.37;102639.81;7291813;19;152256;-51
2021/10/10 05:22:36;;;;;;;;;;;;;;;20.64;78.64;102633.34;7298011;19;152553;-52
2021/10/10 05:25:03;;;;;;;;;;;;;;;20.65;78.81;102628.59;7289032;19;151911;-52
2021/10/10 05:27:30;;;;;;;;;;;;;;;20.63;78.75;102620.41;7291606;19;152651;-52
2021/10/10 05:29:56;;;;;;;;;;;;;;;20.62;78.57;102613.13;7288980;19;154138;-51
2021/10/10 05:32:23;;;;;;;;;;;;;;;20.63;79.09;102617.59;7291121;19;152425;-51
2021/10/10 05:34:53;;;;;;;;;;;;;;;20.64;78.38;102618.44;7291288;19;153390;-52
2021/10/10 05:37:19;;;;;;;;;;;;;;;20.63;78.88;102620.41;7289025;19;153458;-51
2021/10/10 05:39:46;;;;;;;;;;;;;;;20.63;78.70;102616.75;7290615;19;152142;-52
2021/10/10 05:42:12;;;;;;;;;;;;;;;20.63;78.55;102617.59;7291104;19;153276;-51
2021/10/10 05:44:39;;;;;;;;;;;;;;;20.62;78.52;102618.75;7296990;19;154008;-52
2021/10/10 05:47:06;;;;;;;;;;;;;;;20.62;78.35;102621.56;7290720;19;153836;-52
2021/10/10 05:49:33;;;;;;;;;;;;;;;20.64;78.00;102627.72;7289777;19;153401;-51
2021/10/10 05:52:00;;;;;;;;;;;;;;;20.65;77.57;102629.44;7285155;19;152148;-51
2021/10/10 05:54:29;;;;;;;;;;;;;;;20.62;78.33;102629.13;7288073;19;153178;-52
2021/10/10 05:56:58;;;;;;;;;;;;;;;20.62;78.17;102631.94;7288448;19;152920;-51
2021/10/10 05:59:25;;;;;;;;;;;;;;;20.62;78.35;102634.75;7290755;19;152067;-51
2021/10/10 06:01:51;;;;;;;;;;;;;;;20.60;78.48;102629.38;7287603;19;152092;-51
2021/10/10 06:04:18;;;;;;;;;;;;;;;20.60;78.12;102635.00;7297167;19;153946;-51
2021/10/10 06:06:45;;;;;;;;;;;;;;;20.58;78.24;102636.41;7290757;19;153173;-50
2021/10/10 06:09:12;;;;;;;;;;;;;;;20.57;77.68;102638.34;7287124;19;153023;-52
2021/10/10 06:11:38;;;;;;;;;;;;;;;20.57;78.34;102638.34;7288177;19;152168;-50
2021/10/10 06:14:05;;;;;;;;;;;;;;;20.57;77.93;102629.94;7287770;19;153010;-51
2021/10/10 06:16:32;;;;;;;;;;;;;;;20.56;77.88;102633.84;7287899;19;152269;-51
2021/10/10 06:18:59;;;;;;;;;;;;;;;20.57;77.78;102632.75;7289942;19;151664;-52
2021/10/10 06:21:26;;;;;;;;;;;;;;;20.60;77.42;102640.63;7288079;19;152419;-52
2021/10/10 06:23:53;;;;;;;;;;;;;;;20.57;77.68;102632.75;7285869;19;154339;-51
2021/10/10 06:26:20;;;;;;;;;;;;;;;20.59;77.55;102636.09;7294776;19;152010;-50
2021/10/10 06:28:47;;;;;;;;;;;;;;;20.59;77.43;102641.72;7287816;19;153806;-52
2021/10/10 06:31:14;;;;;;;;;;;;;;;20.58;77.63;102631.59;7286985;19;151635;-52
2021/10/10 06:33:41;;;;;;;;;;;;;;;20.59;77.00;102647.34;7289558;19;153226;-51
2021/10/10 06:36:08;;;;;;;;;;;;;;;20.59;76.93;102644.53;7286867;19;155035;-51
2021/10/10 06:38:35;;;;;;;;;;;;;;;20.59;77.18;102644.53;7289104;19;151547;-52
2021/10/10 06:41:01;;;;;;;;;;;;;;;20.58;77.56;102642.84;7286557;19;153675;-52
2021/10/10 06:43:28;;;;;;;;;;;;;;;20.58;77.38;102645.63;7288556;19;153355;-52
2021/10/10 06:45:55;;;;;;;;;;;;;;;20.57;77.44;102645.94;7288106;19;152265;-51
2021/10/10 06:48:21;;;;;;;;;;;;;;;20.56;77.70;102653.50;7294959;19;152033;-51
2021/10/10 06:50:48;;;;;;;;;;;;;;;20.57;77.84;102655.19;7286210;19;152251;-51
2021/10/10 06:53:15;;;;;;;;;;;;;;;20.56;77.18;102655.47;7287974;19;154033;-51
2021/10/10 06:55:41;;;;;;;;;;;;;;;20.57;77.56;102665.59;7287932;19;153950;-52
2021/10/10 06:58:08;;;;;;;;;;;;;;;20.55;77.13;102665.00;7286913;19;152049;-51
2021/10/10 07:00:35;;;;;;;;;;;;;;;20.56;77.29;102664.75;7288791;19;153185;-52
2021/10/10 07:03:02;;;;;;;;;;;;;;;20.52;78.11;102669.19;7284381;19;153526;-52
2021/10/10 07:05:28;;;;;;;;;;;;;;;20.51;78.37;102666.66;7289159;19;151819;-51
2021/10/10 07:07:55;;;;;;;;;;;;;;;20.51;79.08;102667.50;7285759;19;153452;-51
2021/10/10 07:10:22;;;;;;;;;;;;;;;20.49;79.00;102672.50;7291327;19;153917;-51
2021/10/10 07:12:48;;;;;;;;;;;;;;;20.54;78.16;102668.91;7287472;19;153568;-52
2021/10/10 07:15:15;;;;;;;;;;;;;;;20.64;78.14;102675.47;7283861;19;153316;-52
2021/10/10 07:17:42;;;;;;;;;;;;;;;20.62;77.74;102674.91;7284793;19;151933;-52
2021/10/10 07:25:08;;;;;;;;;;;;;;;20.56;78.63;102678.78;7287227;19;151448;-52
2021/10/10 07:27:35;;;;;;;;;;;;;;;20.55;78.38;102679.88;7284956;19;153212;-51
2021/10/10 07:30:03;;;;;;;;;;;;;;;20.56;78.65;102677.94;7283778;19;153503;-51
2021/10/10 07:32:31;;;;;;;;;;;;;;;20.56;78.76;102683.53;7291782;19;151944;-51
2021/10/10 07:34:58;;;;;;;;;;;;;;;20.54;78.79;102692.22;7283869;19;153641;-51
2021/10/10 07:37:25;;;;;;;;;;;;;;;20.53;78.67;102682.13;7287672;19;151531;-51
2021/10/10 07:39:52;;;;;;;;;;;;;;;20.52;78.75;102683.22;7286390;19;151720;-51
2021/10/10 07:42:21;;;;;;;;;;;;;;;20.55;79.00;102682.69;7287521;19;153265;-51
2021/10/10 07:44:50;;;;;;;;;;;;;;;20.58;76.32;102684.13;7288036;19;152095;-51
2021/10/10 07:47:34;;;;;;;;;;;;;;;20.48;69.52;102679.28;7285017;19;153622;-53
2021/10/10 07:50:01;;;;;;;;;;;;;;;20.45;67.71;102691.00;7284022;19;153842;-52
2021/10/10 07:52:27;;;;;;;;;;;;;;;20.49;71.06;102683.75;7284681;19;151784;-50
2021/10/10 07:54:54;;;;;;;;;;;;;;;20.50;74.39;102688.25;7292679;19;153245;-51
2021/10/10 07:57:21;;;;;;;;;;;;;;;20.47;72.93;102688.81;7284847;19;152020;-51
2021/10/10 07:59:48;;;;;;;;;;;;;;;20.48;72.42;102696.13;7285678;19;153356;-52
2021/10/10 08:02:15;;;;;;;;;;;;;;;20.54;72.05;102697.00;7282922;19;153802;-51
2021/10/10 08:04:42;;;;;;;;;;;;;;;20.58;72.12;102696.19;7285220;19;152025;-51
2021/10/10 08:07:08;;;;;;;;;;;;;;;20.66;71.62;102701.34;7282116;19;152353;-50
2021/10/10 08:09:35;;;;;;;;;;;;;;;20.72;71.83;102705.03;7283205;19;153951;-51
2021/10/10 08:12:02;;;;;;;;;;;;;;;20.76;70.91;102709.84;7283793;19;151864;-51
2021/10/10 08:14:29;;;;;;;;;;;;;;;20.81;70.18;102695.84;7290285;19;152146;-51
2021/10/10 08:16:55;;;;;;;;;;;;;;;20.86;70.26;102700.66;7285250;19;151506;-51
2021/10/10 08:19:22;;;;;;;;;;;;;;;20.86;71.35;102701.50;7285688;19;153116;-52
2021/10/10 08:21:50;;;;;;;;;;;;;;;20.89;71.73;102700.16;7281746;19;153715;-51
2021/10/10 08:24:18;;;;;;;;;;;;;;;20.94;71.27;102713.38;7286055;19;151496;-52
2021/10/10 08:26:47;;;;;;;;;;;;;;;21.00;71.48;102709.47;7284133;19;152796;-52
2021/10/10 08:29:14;;;;;;;;;;;;;;;21.05;70.98;102715.16;7284336;19;153509;-52
2021/10/10 08:31:41;;;;;;;;;;;;;;;21.10;70.99;102718.00;7281512;19;151834;-52
2021/10/10 08:34:08;;;;;;;;;;;;;;;21.14;70.33;102716.38;7284970;19;152837;-53
2021/10/10 08:36:45;;;;;;;;;;;;;;;21.19;70.42;102717.28;7290902;19;154121;-51
2021/10/10 08:39:12;;;;;;;;;;;;;;;21.24;69.92;102710.84;7288602;19;152038;-51
2021/10/10 08:41:39;;;;;;;;;;;;;;;21.30;69.66;102712.56;7287819;19;153557;-51
2021/10/10 08:44:07;;;;;;;;;;;;;;;21.35;69.40;102704.16;7288845;19;151780;-50
2021/10/10 08:46:38;;;;;;;;;;;;;;;21.41;69.27;102710.66;7287568;19;153315;-51
2021/10/10 08:49:05;;;;;;;;;;;;;;;21.47;68.66;102712.41;7288811;19;153369;-52
2021/10/10 08:51:34;;;;;;;;;;;;;;;21.51;68.94;102713.53;7290642;19;152355;-51
2021/10/10 08:54:01;;;;;;;;;;;;;;;21.55;68.34;102715.53;7289769;19;153541;-52
2021/10/10 08:56:28;;;;;;;;;;;;;;;21.61;68.53;102716.41;7290072;19;153904;-51
2021/10/10 08:59:00;;;;;;;;;;;;;;;21.65;68.09;102714.75;7295422;19;151942;-52
2021/10/10 09:01:32;;;;;;;;;;;;;;;21.69;67.73;102724.34;7286035;19;153545;-51
2021/10/10 09:03:59;;;;;;;;;;;;;;;21.72;67.95;102719.00;7289891;19;152147;-51
2021/10/10 09:06:26;;;;;;;;;;;;;;;21.76;67.77;102718.47;7288759;19;152037;-51
2021/10/10 09:08:53;;;;;;;;;;;;;;;21.79;67.32;102715.09;7287759;19;155967;-51
2021/10/10 09:11:20;;;;;;;;;;;;;;;21.81;67.51;102718.47;7288470;19;152209;-51
2021/10/10 09:13:59;;;;;;;;;;;;;;;21.84;67.42;102720.75;7290173;19;152839;-51
2021/10/10 09:16:32;;;;;;;;;;;;;;;21.86;66.77;102724.13;7287904;19;154230;-52
2021/10/10 09:18:59;;;;;;;;;;;;;;;21.88;66.99;102730.34;7289025;19;151910;-51
2021/10/10 09:21:27;;;;;;;;;;;;;;;21.89;66.67;102723.59;7294180;19;152178;-51
2021/10/10 09:23:56;;;;;;;;;;;;;;;21.91;66.67;102726.97;7291027;19;151676;-51
2021/10/10 09:26:23;;;;;;;;;;;;;;;21.93;66.86;102730.41;7290842;19;153409;-51
2021/10/10 09:28:51;;;;;;;;;;;;;;;21.94;66.43;102729.28;7287170;19;152717;-51
2021/10/10 09:31:17;;;;;;;;;;;;;;;21.96;66.63;102732.66;7287558;19;151775;-51
2021/10/10 09:33:46;;;;;;;;;;;;;;;21.96;66.15;102736.31;7288610;19;152104;-51
2021/10/10 09:43:58;;;;;;;;;;;;;;;21.98;65.85;102738.88;7297310;19;153852;-51
2021/10/10 09:46:25;;;;;;;;;;;;;;;21.99;65.57;102746.16;7287397;19;152893;-52
2021/10/10 09:48:52;;;;;;;;;;;;;;;21.99;65.49;102743.34;7283134;19;152286;-51
2021/10/10 09:51:29;;;;;;;;;;;;;;;21.99;65.41;102741.38;7289280;19;151840;-51
2021/10/10 09:53:59;;;;;;;;;;;;;;;22.01;65.28;102741.13;7288843;19;153384;-51
2021/10/10 09:56:26;;;;;;;;;;;;;;;21.99;65.22;102741.38;7286273;19;155998;-52
2021/10/10 09:58:53;;;;;;;;;;;;;;;22.02;64.55;102746.50;7287190;19;151950;-52
2021/10/10 10:01:20;;;;;;;;;;;;;;;21.84;61.70;102744.13;7285453;19;152428;-52
2021/10/10 10:03:55;;;;;;;;;;;;;;;21.84;61.77;102738.50;7286369;19;153791;-52
2021/10/10 10:06:23;;;;;;;;;;;;;;;21.78;61.64;102738.72;7295212;19;152042;-52
2021/10/10 10:09:01;;;;;;;;;;;;;;;21.77;61.75;102734.22;7284566;19;153706;-52
2021/10/10 10:11:30;;;;;;;;;;;;;;;21.70;62.55;102743.75;7287604;19;152284;-51
2021/10/10 10:13:59;;;;;;;;;;;;;;;21.70;62.57;102745.72;7288815;19;152906;-52
2021/10/10 10:16:27;;;;;;;;;;;;;;;21.64;63.15;102742.03;7286121;19;153340;-52
2021/10/10 10:18:54;;;;;;;;;;;;;;;21.60;63.57;102746.50;7286336;19;151977;-51
2021/10/10 10:21:21;;;;;;;;;;;;;;;21.65;63.37;102740.06;7288785;19;153054;-51
2021/10/10 10:23:49;;;;;;;;;;;;;;;21.60;63.92;102745.66;7286907;19;153266;-51
2021/10/10 10:26:15;;;;;;;;;;;;;;;21.58;64.07;102737.47;7294780;19;151918;-52
2021/10/10 10:28:42;;;;;;;;;;;;;;;21.54;64.19;102743.94;7286531;19;153282;-52
2021/10/10 10:31:12;;;;;;;;;;;;;;;21.50;64.50;102743.63;7286180;19;152795;-52
2021/10/10 10:33:39;;;;;;;;;;;;;;;21.46;64.99;102738.81;7279560;19;153660;-51
2021/10/10 10:36:06;;;;;;;;;;;;;;;21.44;64.83;102741.06;7283955;19;152545;-51
2021/10/10 10:38:42;;;;;;;;;;;;;;;21.40;65.29;102745.50;7282448;19;151822;-52
2021/10/10 10:41:28;;;;;;;;;;;;;;;21.32;66.08;102741.25;7285675;19;152987;-52
2021/10/10 10:43:55;;;;;;;;;;;;;;;21.37;65.75;102741.28;7283955;19;152772;-52
2021/10/10 10:46:22;;;;;;;;;;;;;;;21.30;66.27;102738.69;7286212;19;151737;-52
2021/10/10 10:48:50;;;;;;;;;;;;;;;21.31;66.01;102739.56;7294293;19;152828;-51
2021/10/10 10:51:24;;;;;;;;;;;;;;;21.19;67.13;102741.72;7284606;19;151754;-52
2021/10/10 10:53:51;;;;;;;;;;;;;;;21.14;67.31;102739.72;7284444;19;152729;-51
2021/10/10 10:56:26;;;;;;;;;;;;;;;21.18;67.09;102740.88;7283646;19;153435;-52
2021/10/10 10:58:55;;;;;;;;;;;;;;;21.18;67.99;102740.88;7282330;19;151771;-51
2021/10/10 11:01:22;;;;;;;;;;;;;;;21.16;68.17;102743.13;7282997;19;152839;-51
2021/10/10 11:03:50;;;;;;;;;;;;;;;21.00;69.54;102746.88;7284485;19;154164;-51
2021/10/10 11:06:17;;;;;;;;;;;;;;;21.06;69.60;102742.16;7283538;19;151749;-51
2021/10/10 11:08:44;;;;;;;;;;;;;;;21.03;69.11;102746.31;7286465;19;153289;-51
2021/10/10 11:11:13;;;;;;;;;;;;;;;21.07;69.65;102755.09;7289402;19;153936;-51
2021/10/10 11:13:41;;;;;;;;;;;;;;;21.08;69.25;102748.31;7284312;19;153526;-51
2021/10/10 11:16:10;;;;;;;;;;;;;;;21.09;69.27;102747.22;7283106;19;152511;-52
2021/10/10 11:18:41;;;;;;;;;;;;;;;21.05;69.50;102749.72;7286884;19;151762;-52
2021/10/10 11:21:08;;;;;;;;;;;;;;;21.08;69.66;102752.00;7284876;19;153273;-52
2021/10/10 11:23:35;;;;;;;;;;;;;;;21.08;69.95;102753.94;7281478;19;152651;-51
2021/10/10 11:26:04;;;;;;;;;;;;;;;21.07;69.48;102755.09;7285082;19;152288;-51
2021/10/10 11:28:40;;;;;;;;;;;;;;;21.06;69.97;102753.38;7283273;19;153677;-53
2021/10/10 11:31:10;;;;;;;;;;;;;;;21.10;69.28;102749.78;7285946;19;153443;-54
2021/10/10 11:33:38;;;;;;;;;;;;;;;20.32;100.00;102756.84;7284235;19;152231;-56
2021/10/10 11:36:05;;;;;;;;;;;;;;;19.96;100.00;102752.72;7283836;19;153470;-53
2021/10/10 11:38:41;;;;;;;;;;;;;;;19.95;100.00;102751.03;7283815;19;151663;-53
2021/10/10 11:41:08;;;;;;;;;;;;;;;20.35;100.00;102747.06;7285999;19;151980;-52
2021/10/10 11:43:35;;;;;;;;;;;;;;;20.26;100.00;102745.81;7284339;19;156283;-52
2021/10/10 11:46:02;;;;;;;;;;;;;;;20.30;100.00;102745.06;7281699;19;151947;-52
2021/10/10 11:48:33;;;;;;;;;;;;;;;20.32;100.00;102741.97;7282574;19;151880;-52
2021/10/10 11:51:00;;;;;;;;;;;;;;;20.46;99.15;102734.84;7282792;19;153811;-52
2021/10/10 11:53:38;;;;;;;;;;;;;;;20.55;98.11;102730.44;7281607;19;151843;-52
2021/10/10 11:56:04;;;;;;;;;;;;;;;20.61;96.73;102726.56;7291390;19;152808;-52
2021/10/10 11:58:32;;;;;;;;;;;;;;;20.68;96.39;102734.75;7285954;19;151638;-52
2021/10/10 12:01:09;;;;;;;;;;;;;;;20.71;95.73;102728.63;7283960;19;153514;-52
2021/10/10 12:03:46;;;;;;;;;;;;;;;20.74;95.66;102723.31;7282233;19;154132;-52
2021/10/10 12:06:17;;;;;;;;;;;;;;;20.77;95.28;102731.22;7284437;19;151743;-52
2021/10/10 12:08:44;;;;;;;;;;;;;;;20.77;94.64;102725.59;7282452;19;153827;-52
2021/10/10 12:11:14;;;;;;;;;;;;;;;20.79;94.35;102719.72;7276821;19;152256;-53
2021/10/10 12:13:51;;;;;;;;;;;;;;;20.78;94.06;102720.81;7281678;19;151853;-52
2021/10/10 12:16:17;;;;;;;;;;;;;;;20.78;93.86;102713.25;7283913;19;151990;-53
2021/10/10 12:18:44;;;;;;;;;;;;;;;20.79;93.77;102729.00;7289089;19;151544;-52
2021/10/10 12:21:20;;;;;;;;;;;;;;;20.79;93.94;102722.53;7281562;19;152094;-52
2021/10/10 12:24:00;;;;;;;;;;;;;;;20.79;93.62;102725.34;7281070;19;153791;-52
2021/10/10 12:26:29;;;;;;;;;;;;;;;20.80;93.70;102727.03;7282656;19;152108;-53
2021/10/10 12:28:55;;;;;;;;;;;;;;;20.79;93.72;102725.34;7282247;19;152556;-53
2021/10/10 12:31:23;;;;;;;;;;;;;;;20.83;93.46;102721.72;7280671;19;153256;-53
2021/10/10 12:34:07;;;;;;;;;;;;;;;20.84;93.22;102716.97;7273825;19;152316;-53
2021/10/10 12:36:44;;;;;;;;;;;;;;;20.86;92.95;102715.56;7274963;19;152013;-52
2021/10/10 12:39:11;;;;;;;;;;;;;;;20.85;92.86;102716.66;7287713;19;153876;-53
2021/10/10 12:41:38;;;;;;;;;;;;;;;20.88;92.58;102717.25;7278156;19;153160;-53